Time;durP1;ratioP1;P1;durP2;ratioP2;P2;SDS_P1;SDS_P2;PMS_P1;PMS_P2;Temp;Humidity;BMP_temperature;BMP_pressure;BME280_temperature;BME280_humidity;BME280_pressure;Samples;Min_cycle;Max_cycle;Signal;HPM_P1;HPM_P2
2022/03/07 00:01:07;;;;;;;1.35;0.90;;;;;;;0.78;87.65;102858.59;5047381;28;20024;-74
2022/03/07 00:03:33;;;;;;;1.50;0.90;;;;;;;0.74;88.17;102851.75;5054963;28;20029;-74
2022/03/07 00:05:58;;;;;;;2.33;0.82;;;;;;;0.71;88.05;102852.69;5058977;28;20079;-73
2022/03/07 00:08:24;;;;;;;2.85;0.80;;;;;;;0.60;87.85;102834.75;5050740;28;20048;-73
2022/03/07 00:10:50;;;;;;;3.42;1.35;;;;;;;0.68;88.26;102852.78;5047027;28;20044;-73
2022/03/07 00:13:15;;;;;;;3.28;0.93;;;;;;;0.68;87.98;102857.13;5058805;28;20029;-73
2022/03/07 00:15:40;;;;;;;2.33;1.10;;;;;;;0.64;88.03;102856.34;5047522;28;20056;-73
2022/03/07 00:18:06;;;;;;;2.60;0.95;;;;;;;0.56;87.63;102847.88;5039164;28;20539;-73
2022/03/07 00:20:32;;;;;;;5.43;1.40;;;;;;;0.63;88.45;102866.78;5048228;28;20025;-73
2022/03/07 00:22:58;;;;;;;4.28;1.20;;;;;;;0.61;88.13;102869.44;5048522;28;20025;-73
2022/03/07 00:25:24;;;;;;;3.50;0.90;;;;;;;0.48;87.65;102849.78;5052282;28;20517;-73
2022/03/07 00:27:49;;;;;;;2.38;1.02;;;;;;;0.52;87.52;102867.00;5050639;28;20028;-73
2022/03/07 00:30:17;;;;;;;4.70;1.30;;;;;;;0.50;87.59;102868.78;5051966;28;20040;-73
2022/03/07 00:32:43;;;;;;;1.48;0.80;;;;;;;0.48;87.47;102871.44;5062062;28;20036;-73
2022/03/07 00:35:09;;;;;;;1.08;0.70;;;;;;;0.45;87.81;102863.72;5057568;28;20097;-74
2022/03/07 00:37:34;;;;;;;1.92;1.08;;;;;;;0.43;87.85;102867.22;5070198;28;20030;-73
2022/03/07 00:40:00;;;;;;;2.10;0.90;;;;;;;0.28;87.62;102848.50;5061941;28;20025;-73
2022/03/07 00:42:25;;;;;;;1.40;1.10;;;;;;;0.35;87.63;102870.88;5036806;28;20032;-73
2022/03/07 00:44:50;;;;;;;1.25;0.93;;;;;;;0.29;88.41;102880.53;5050614;28;20035;-73
2022/03/07 00:47:16;;;;;;;2.47;1.13;;;;;;;0.23;89.13;102878.91;5050918;28;20082;-73
2022/03/07 00:49:41;;;;;;;2.17;1.20;;;;;;;0.25;89.28;102879.75;5061652;28;20055;-73
2022/03/07 00:52:07;;;;;;;1.55;0.93;;;;;;;0.24;88.38;102878.03;5049935;28;20382;-73
2022/03/07 00:54:32;;;;;;;2.35;0.70;;;;;;;0.27;88.13;102888.34;5055589;28;20024;-73
2022/03/07 00:56:57;;;;;;;4.57;1.27;;;;;;;0.29;88.32;102889.19;5039794;28;20040;-73
2022/03/07 00:59:23;;;;;;;1.00;0.80;;;;;;;0.28;88.22;102894.41;5051777;28;20021;-73
2022/03/07 01:01:48;;;;;;;2.13;1.23;;;;;;;0.27;88.51;102893.56;5057617;28;20024;-73
2022/03/07 01:04:13;;;;;;;2.05;1.27;;;;;;;0.19;88.72;102885.06;5060875;28;20044;-73
2022/03/07 01:06:39;;;;;;;1.65;1.08;;;;;;;0.23;89.18;102896.25;5052183;28;20493;-73
2022/03/07 01:09:04;;;;;;;4.10;1.15;;;;;;;0.20;89.26;102899.78;5052128;28;20025;-73
2022/03/07 01:11:29;;;;;;;4.18;1.00;;;;;;;0.03;88.83;102875.91;5055025;28;20047;-73
2022/03/07 01:13:55;;;;;;;2.35;1.10;;;;;;;0.11;89.00;102890.44;5063330;28;20039;-73
2022/03/07 01:16:21;;;;;;;3.33;0.85;;;;;;;0.07;88.89;102882.75;5052006;28;20606;-73
2022/03/07 01:18:47;;;;;;;4.25;1.10;;;;;;;-0.19;89.17;102842.59;5051577;28;20061;-72
2022/03/07 01:21:12;;;;;;;1.08;0.70;;;;;;;0.00;88.75;102879.41;5052441;28;20029;-73
2022/03/07 01:23:38;;;;;;;4.22;1.30;;;;;;;0.03;88.65;102888.88;5060276;28;20492;-72
2022/03/07 01:26:03;;;;;;;1.23;0.80;;;;;;;0.01;88.55;102885.47;5051527;28;20033;-72
2022/03/07 01:28:29;;;;;;;3.33;1.27;;;;;;;-0.03;87.99;102885.50;5053344;28;20048;-72
2022/03/07 01:30:54;;;;;;;1.42;0.98;;;;;;;-0.07;88.38;102881.25;5033972;28;20369;-72
2022/03/07 01:33:19;;;;;;;3.33;1.00;;;;;;;-0.13;88.63;102873.63;5055189;28;20406;-73
2022/03/07 01:35:45;;;;;;;2.25;1.02;;;;;;;-0.09;88.59;102867.47;5050505;28;20123;-73
2022/03/07 01:38:10;;;;;;;1.35;0.90;;;;;;;-0.23;88.88;102851.34;5051903;28;20365;-73
2022/03/07 01:40:36;;;;;;;3.25;1.27;;;;;;;-0.12;88.50;102869.28;5052088;28;20037;-72
2022/03/07 01:43:01;;;;;;;2.42;1.10;;;;;;;-0.15;89.22;102870.19;5062170;28;20029;-72
2022/03/07 01:45:27;;;;;;;4.63;1.67;;;;;;;-0.23;88.63;102857.38;5052219;28;20033;-73
2022/03/07 01:47:52;;;;;;;2.63;1.05;;;;;;;-0.19;88.85;102860.75;5050400;28;20053;-72
2022/03/07 01:50:19;;;;;;;4.22;1.80;;;;;;;-0.25;88.66;102864.31;5056957;28;20039;-72
2022/03/07 01:52:47;;;;;;;6.72;1.35;;;;;;;-0.31;89.47;102853.22;5063539;28;20071;-72
2022/03/07 01:55:14;;;;;;;2.17;0.75;;;;;;;-0.28;89.50;102864.41;5057834;28;20131;-73
2022/03/07 01:57:43;;;;;;;1.85;1.00;;;;;;;-0.28;89.94;102854.03;5052291;28;20028;-73
2022/03/07 02:00:15;;;;;;;2.40;1.40;;;;;;;-0.30;90.15;102860.13;5057345;28;20028;-73
2022/03/07 02:02:42;;;;;;;1.98;0.90;;;;;;;-0.38;90.25;102856.81;5052641;28;20052;-73
2022/03/07 02:05:09;;;;;;;1.15;0.93;;;;;;;-0.43;90.62;102859.50;5057649;28;20105;-73
2022/03/07 02:07:36;;;;;;;2.95;1.55;;;;;;;-0.46;91.17;102849.19;5060723;28;20118;-73
2022/03/07 02:10:04;;;;;;;1.60;1.10;;;;;;;-0.52;91.55;102850.16;5060530;28;20064;-74
2022/03/07 02:12:29;;;;;;;1.55;0.95;;;;;;;-0.48;91.66;102854.41;5055781;28;20039;-73
2022/03/07 02:14:55;;;;;;;1.98;1.13;;;;;;;-0.51;91.79;102859.66;5050277;28;20057;-73
2022/03/07 02:17:20;;;;;;;2.60;1.00;;;;;;;-0.52;92.01;102860.53;5051389;28;20028;-74
2022/03/07 02:19:45;;;;;;;1.63;1.02;;;;;;;-0.51;92.16;102858.78;5050484;28;20481;-73
2022/03/07 02:22:11;;;;;;;1.13;0.82;;;;;;;-0.52;92.07;102870.91;5050372;28;20055;-73
2022/03/07 02:24:37;;;;;;;4.03;1.00;;;;;;;-0.54;91.65;102864.91;5052493;28;20095;-74
2022/03/07 02:27:07;;;;;;;4.72;1.08;;;;;;;-0.58;90.90;102863.25;5052282;28;20048;-74
2022/03/07 02:29:34;;;;;;;1.20;0.80;;;;;;;-0.57;90.23;102867.53;5052420;28;20028;-74
2022/03/07 02:31:59;;;;;;;3.88;1.13;;;;;;;-0.62;90.27;102869.38;5042678;28;20082;-73
2022/03/07 02:34:25;;;;;;;1.02;0.90;;;;;;;-0.68;90.14;102859.94;5050299;28;20041;-74
2022/03/07 02:36:51;;;;;;;1.92;1.40;;;;;;;-0.67;90.82;102866.00;5053127;28;20025;-74
2022/03/07 02:39:17;;;;;;;2.90;1.13;;;;;;;-0.65;91.31;102859.06;5057412;28;20434;-74
2022/03/07 02:41:43;;;;;;;1.35;0.80;;;;;;;-0.65;91.41;102853.88;5054628;28;20392;-74
2022/03/07 02:44:09;;;;;;;5.85;1.67;;;;;;;-0.65;91.35;102857.31;5059783;28;20036;-74
2022/03/07 02:46:35;;;;;;;6.03;1.23;;;;;;;-0.78;91.21;102829.91;5052671;28;20375;-74
2022/03/07 02:49:00;;;;;;;1.50;0.95;;;;;;;-0.65;91.43;102848.69;5051788;28;20111;-75
2022/03/07 02:51:26;;;;;;;2.17;0.93;;;;;;;-0.71;91.34;102830.66;5054032;28;20077;-74
2022/03/07 02:53:51;;;;;;;10.00;1.10;;;;;;;-0.69;91.53;102837.50;5050752;28;20445;-74
2022/03/07 02:56:17;;;;;;;4.95;1.20;;;;;;;-0.71;90.98;102843.63;5061420;28;20512;-74
2022/03/07 02:58:42;;;;;;;1.38;1.15;;;;;;;-0.80;90.93;102820.44;5051734;28;20115;-74
2022/03/07 03:01:08;;;;;;;2.03;0.90;;;;;;;-0.76;90.87;102835.91;5060250;28;20033;-74
2022/03/07 03:03:34;;;;;;;5.00;1.70;;;;;;;-0.81;91.47;102829.09;5052244;28;20359;-74
2022/03/07 03:05:59;;;;;;;2.08;1.10;;;;;;;-0.93;91.29;102817.22;5056259;28;20039;-73
2022/03/07 03:08:25;;;;;;;4.43;1.50;;;;;;;-0.88;92.17;102826.59;5058547;28;20036;-75
2022/03/07 03:10:52;;;;;;;3.53;1.13;;;;;;;-0.88;92.19;102836.97;5054967;28;20480;-74
2022/03/07 03:13:20;;;;;;;3.53;1.17;;;;;;;-0.91;91.96;102831.00;5061673;28;20028;-74
2022/03/07 03:15:46;;;;;;;2.70;1.23;;;;;;;-0.95;92.23;102834.53;5052262;28;20053;-74
2022/03/07 03:18:12;;;;;;;2.22;1.20;;;;;;;-1.00;92.56;102828.56;5059884;28;20024;-74
2022/03/07 03:20:39;;;;;;;3.00;1.17;;;;;;;-1.01;92.75;102827.72;5052366;28;20021;-74
2022/03/07 03:23:04;;;;;;;1.48;1.00;;;;;;;-1.01;93.54;102827.72;5059311;28;20040;-74
2022/03/07 03:25:30;;;;;;;2.45;1.20;;;;;;;-1.02;93.17;102831.19;5058047;28;20461;-73
2022/03/07 03:27:55;;;;;;;5.50;2.03;;;;;;;-1.09;93.97;102827.84;5055092;28;20037;-74
2022/03/07 03:30:21;;;;;;;1.75;1.35;;;;;;;-1.23;94.48;102803.91;5059584;28;20571;-73
2022/03/07 03:32:46;;;;;;;2.58;1.30;;;;;;;-1.05;94.83;102828.63;5055180;28;20032;-74
2022/03/07 03:35:12;;;;;;;1.83;1.20;;;;;;;-1.25;95.15;102798.75;5062679;28;20032;-74
2022/03/07 03:37:38;;;;;;;4.50;1.30;;;;;;;-1.03;94.95;102829.47;5055871;28;20346;-74
2022/03/07 03:40:05;;;;;;;5.00;1.48;;;;;;;-1.15;94.63;102814.16;5060579;28;20389;-73
2022/03/07 03:42:30;;;;;;;2.45;1.88;;;;;;;-1.12;94.58;102829.63;5060069;28;20455;-73
2022/03/07 03:44:55;;;;;;;4.45;2.00;;;;;;;-1.23;95.13;102816.00;5056496;28;20032;-74
2022/03/07 03:47:21;;;;;;;5.60;1.67;;;;;;;-1.13;95.38;102825.31;5055080;28;20021;-74
2022/03/07 03:49:46;;;;;;;1.90;1.25;;;;;;;-1.11;95.14;102823.56;5058056;28;20074;-74
2022/03/07 03:52:12;;;;;;;3.83;1.65;;;;;;;-1.42;94.90;102782.63;5055808;28;20036;-73
2022/03/07 03:54:37;;;;;;;2.40;1.70;;;;;;;-1.23;95.27;102813.41;5053713;28;20023;-73
2022/03/07 03:57:03;;;;;;;1.50;1.23;;;;;;;-1.17;95.32;102828.88;5054897;28;20455;-73
2022/03/07 03:59:29;;;;;;;2.15;1.65;;;;;;;-1.15;94.42;102837.47;5053696;28;20133;-73
2022/03/07 04:01:54;;;;;;;2.67;1.25;;;;;;;-1.13;94.80;102840.88;5059959;28;20025;-73
2022/03/07 04:04:19;;;;;;;2.63;1.40;;;;;;;-1.13;94.67;102843.47;5051697;28;20111;-73
2022/03/07 04:06:45;;;;;;;3.75;1.52;;;;;;;-1.28;94.03;102822.13;5057987;28;20511;-73
2022/03/07 04:09:18;;;;;;;2.50;1.42;;;;;;;-1.23;93.58;102840.19;5043213;28;20274;-73
2022/03/07 04:11:44;;;;;;;1.63;1.05;;;;;;;-1.20;93.01;102849.63;5052189;28;20124;-73
2022/03/07 04:14:10;;;;;;;3.55;1.83;;;;;;;-1.20;93.03;102849.63;5059354;28;20116;-73
2022/03/07 04:16:38;;;;;;;6.78;1.70;;;;;;;-1.22;92.73;102846.22;5059694;28;20044;-73
2022/03/07 04:19:03;;;;;;;5.47;1.73;;;;;;;-1.33;92.80;102831.72;5054843;28;20039;-73
2022/03/07 04:21:28;;;;;;;4.70;1.80;;;;;;;-1.23;92.83;102855.72;5057671;28;20099;-73
2022/03/07 04:23:54;;;;;;;4.63;1.70;;;;;;;-1.23;92.39;102854.88;5060569;28;20429;-72
2022/03/07 04:26:19;;;;;;;3.55;1.55;;;;;;;-1.25;92.31;102857.47;5054549;28;20153;-73
2022/03/07 04:28:45;;;;;;;3.40;1.60;;;;;;;-1.36;92.27;102844.69;5052313;28;20039;-72
2022/03/07 04:31:11;;;;;;;2.38;1.42;;;;;;;-1.29;92.54;102858.41;5053135;28;20509;-72
2022/03/07 04:33:36;;;;;;;1.73;1.55;;;;;;;-1.30;92.11;102865.31;5054518;28;20032;-72
2022/03/07 04:36:02;;;;;;;9.25;2.28;;;;;;;-1.34;92.49;102866.25;5054721;28;20029;-72
2022/03/07 04:38:28;;;;;;;1.75;1.65;;;;;;;-1.36;92.85;102859.38;5055682;28;20027;-71
2022/03/07 04:40:54;;;;;;;2.20;1.52;;;;;;;-1.35;93.33;102867.16;5060555;28;20116;-71
2022/03/07 04:43:19;;;;;;;3.85;1.95;;;;;;;-1.34;93.41;102863.66;5059963;28;20116;-71
2022/03/07 04:45:45;;;;;;;3.05;2.13;;;;;;;-1.34;93.55;102861.06;5061309;28;20503;-72
2022/03/07 04:48:10;;;;;;;4.10;1.50;;;;;;;-1.36;93.42;102864.56;5057284;28;20033;-72
2022/03/07 04:50:36;;;;;;;2.17;1.50;;;;;;;-1.45;93.02;102856.06;5052750;28;20029;-72
2022/03/07 04:53:02;;;;;;;3.70;1.70;;;;;;;-1.40;93.42;102868.09;5055818;28;20059;-71
2022/03/07 04:55:27;;;;;;;5.50;1.85;;;;;;;-1.54;93.24;102850.16;5054367;28;20032;-71
2022/03/07 04:57:52;;;;;;;2.40;1.50;;;;;;;-1.44;93.59;102867.25;5039669;28;20028;-71
2022/03/07 05:00:19;;;;;;;3.17;1.45;;;;;;;-1.74;93.44;102817.66;5057595;28;20037;-71
2022/03/07 05:02:44;;;;;;;2.95;2.35;;;;;;;-1.45;93.50;102868.16;5056183;28;20051;-71
2022/03/07 05:05:10;;;;;;;5.07;2.42;;;;;;;-1.54;93.94;102857.94;5054378;28;20484;-71
2022/03/07 05:07:36;;;;;;;2.15;1.35;;;;;;;-1.54;93.75;102881.25;5054465;28;20032;-71
2022/03/07 05:10:03;;;;;;;2.67;1.60;;;;;;;-1.61;94.24;102874.41;5053366;28;20405;-71
2022/03/07 05:12:28;;;;;;;2.63;1.83;;;;;;;-1.67;94.92;102870.19;5057698;28;20028;-70
2022/03/07 05:14:54;;;;;;;2.25;1.90;;;;;;;-1.66;95.95;102871.91;5057564;28;20029;-70
2022/03/07 05:17:19;;;;;;;4.28;2.53;;;;;;;-1.68;95.81;102871.94;5059892;28;20067;-70
2022/03/07 05:19:47;;;;;;;3.42;1.90;;;;;;;-1.89;96.75;102836.00;5058153;28;20500;-70
2022/03/07 05:22:13;;;;;;;2.90;1.73;;;;;;;-1.74;97.05;102861.66;5061518;28;20025;-70
2022/03/07 05:24:38;;;;;;;2.45;1.80;;;;;;;-1.69;96.96;102869.38;5057781;28;20104;-70
2022/03/07 05:27:03;;;;;;;2.17;1.70;;;;;;;-1.71;96.68;102871.13;5063402;28;20117;-70
2022/03/07 05:29:29;;;;;;;3.40;1.90;;;;;;;-1.76;96.46;102863.41;5059027;28;20028;-70
2022/03/07 05:31:54;;;;;;;6.03;2.28;;;;;;;-1.81;96.98;102866.94;5062364;28;20496;-71
2022/03/07 05:34:20;;;;;;;4.82;1.83;;;;;;;-1.88;97.32;102853.22;5061471;28;20036;-70
2022/03/07 05:36:45;;;;;;;8.35;2.40;;;;;;;-1.84;97.29;102867.84;5063375;28;20060;-70
2022/03/07 05:39:10;;;;;;;2.33;1.92;;;;;;;-2.09;97.92;102820.69;5061487;28;20033;-70
2022/03/07 05:41:37;;;;;;;4.18;2.03;;;;;;;-1.86;97.89;102867.00;5057605;28;20946;-70
2022/03/07 05:44:02;;;;;;;3.53;2.20;;;;;;;-1.86;98.20;102864.41;5061846;28;20060;-70
2022/03/07 05:46:28;;;;;;;2.75;1.80;;;;;;;-1.84;98.41;102865.25;5058792;28;20102;-70
2022/03/07 05:48:53;;;;;;;3.25;2.20;;;;;;;-1.88;98.78;102850.63;5059718;28;20031;-70
2022/03/07 05:51:23;;;;;;;2.35;1.90;;;;;;;-1.81;98.68;102864.34;5060723;28;20571;-70
2022/03/07 05:53:50;;;;;;;3.17;2.17;;;;;;;-1.85;98.57;102863.53;5063481;28;20036;-70
2022/03/07 05:56:15;;;;;;;3.35;2.03;;;;;;;-1.83;98.72;102864.34;5058753;28;20047;-70
2022/03/07 05:58:41;;;;;;;4.97;2.10;;;;;;;-1.86;98.64;102859.22;5059234;28;20024;-70
2022/03/07 06:01:06;;;;;;;5.82;2.40;;;;;;;-1.82;98.19;102860.91;5057773;28;20021;-69
2022/03/07 06:03:31;;;;;;;4.43;2.30;;;;;;;-1.86;99.28;102857.50;5057231;28;20024;-69
2022/03/07 06:05:57;;;;;;;3.75;2.45;;;;;;;-1.86;99.57;102859.22;5057576;28;20591;-69
2022/03/07 06:08:22;;;;;;;4.55;2.63;;;;;;;-1.89;99.70;102854.97;5057317;28;20043;-70
2022/03/07 06:10:48;;;;;;;4.95;2.83;;;;;;;-1.82;100.00;102867.81;5058378;28;20025;-69
2022/03/07 06:13:14;;;;;;;7.22;2.55;;;;;;;-1.94;100.00;102856.75;5057525;28;20044;-69
2022/03/07 06:15:43;;;;;;;5.53;3.78;;;;;;;-1.88;100.00;102874.78;5060244;28;20053;-69
2022/03/07 06:18:10;;;;;;;11.02;6.35;;;;;;;-1.92;100.00;102874.84;5052464;28;20067;-69
2022/03/07 06:20:35;;;;;;;5.97;2.90;;;;;;;-2.04;100.00;102857.75;5055844;28;20025;-70
2022/03/07 06:23:01;;;;;;;3.70;2.35;;;;;;;-1.96;100.00;102873.16;5048896;28;20681;-69
2022/03/07 06:25:28;;;;;;;5.68;3.08;;;;;;;-2.03;100.00;102872.38;5054453;28;20036;-69
2022/03/07 06:27:54;;;;;;;5.47;2.88;;;;;;;-2.11;100.00;102871.63;5052461;28;20390;-69
2022/03/07 06:30:19;;;;;;;9.23;3.10;;;;;;;-2.13;100.00;102866.47;5043987;28;20040;-69
2022/03/07 06:32:44;;;;;;;4.93;2.72;;;;;;;-2.13;100.00;102865.63;5053418;28;20029;-69
2022/03/07 06:35:10;;;;;;;8.82;4.32;;;;;;;-2.13;100.00;102871.66;5049241;28;20485;-69
2022/03/07 06:37:36;;;;;;;8.02;3.58;;;;;;;-2.13;100.00;102858.72;5050518;28;20123;-69
2022/03/07 06:40:02;;;;;;;11.35;4.97;;;;;;;-2.05;100.00;102860.34;5052922;28;20017;-69
2022/03/07 06:42:27;;;;;;;5.43;3.17;;;;;;;-1.88;100.00;102871.34;5053721;28;20114;-69
2022/03/07 06:44:53;;;;;;;13.85;7.93;;;;;;;-1.79;100.00;102875.53;5050177;28;20503;-69
2022/03/07 06:47:18;;;;;;;12.32;5.53;;;;;;;-1.73;100.00;102873.72;5055724;28;20044;-69
2022/03/07 06:49:45;;;;;;;3.30;2.67;;;;;;;-1.65;100.00;102873.63;5054137;28;20024;-71
2022/03/07 06:52:11;;;;;;;9.15;4.80;;;;;;;-1.59;100.00;102877.84;5057381;28;20032;-70
2022/03/07 06:54:37;;;;;;;4.78;3.47;;;;;;;-1.50;100.00;102878.59;5046388;28;20122;-70
2022/03/07 06:57:03;;;;;;;9.02;4.95;;;;;;;-1.44;100.00;102872.44;5047158;28;20051;-70
2022/03/07 06:59:29;;;;;;;6.43;4.80;;;;;;;-1.35;100.00;102877.50;5052666;28;20474;-70
2022/03/07 07:01:55;;;;;;;5.78;2.85;;;;;;;-1.26;100.00;102877.34;5056031;28;20115;-72
2022/03/07 07:04:20;;;;;;;4.68;2.90;;;;;;;-1.21;100.00;102871.25;5058902;28;20388;-71
2022/03/07 07:06:46;;;;;;;7.05;3.75;;;;;;;-1.07;100.00;102877.06;5055277;28;20025;-71
2022/03/07 07:09:11;;;;;;;3.78;2.53;;;;;;;-1.03;100.00;102876.13;5057055;28;20383;-70
2022/03/07 07:11:37;;;;;;;6.07;3.90;;;;;;;-0.89;100.00;102884.53;5057850;28;20087;-70
2022/03/07 07:14:03;;;;;;;4.13;2.53;;;;;;;-0.78;100.00;102878.28;5056238;28;20038;-70
2022/03/07 07:16:29;;;;;;;12.55;3.72;;;;;;;-0.69;100.00;102888.53;5057050;28;20040;-70
2022/03/07 07:18:54;;;;;;;5.10;3.22;;;;;;;-0.68;100.00;102878.09;5054906;28;20040;-71
2022/03/07 07:21:20;;;;;;;5.38;4.47;;;;;;;-0.63;100.00;102867.69;5053875;28;20020;-71
2022/03/07 07:23:45;;;;;;;3.92;2.97;;;;;;;-0.57;100.00;102857.16;5057930;28;20044;-71
2022/03/07 07:26:10;;;;;;;8.68;3.25;;;;;;;-0.29;100.00;102888.63;5037473;28;20500;-73
2022/03/07 07:28:36;;;;;;;6.90;3.08;;;;;;;-0.26;100.00;102883.38;5058388;28;20013;-71
2022/03/07 07:31:02;;;;;;;3.78;2.75;;;;;;;-0.16;100.00;102876.25;5058007;28;20036;-71
2022/03/07 07:33:28;;;;;;;6.22;3.25;;;;;;;0.03;100.00;102894.91;5057381;28;20028;-72
2022/03/07 07:35:53;;;;;;;7.72;3.45;;;;;;;0.12;100.00;102880.91;5057660;28;20059;-72
2022/03/07 07:38:19;;;;;;;6.68;3.45;;;;;;;0.29;100.00;102885.72;5034538;28;20028;-72
2022/03/07 07:40:45;;;;;;;5.90;2.60;;;;;;;0.42;100.00;102884.56;5056625;28;20697;-72
2022/03/07 07:43:10;;;;;;;6.78;3.20;;;;;;;0.53;100.00;102887.78;5053392;28;20040;-72
2022/03/07 07:45:36;;;;;;;3.35;2.42;;;;;;;0.67;100.00;102892.66;5031071;28;20037;-73
2022/03/07 07:48:01;;;;;;;4.88;2.97;;;;;;;0.77;100.00;102878.56;5026187;28;20677;-72
2022/03/07 07:50:27;;;;;;;4.40;2.83;;;;;;;0.99;100.00;102893.63;5049457;28;20436;-72
2022/03/07 07:52:54;;;;;;;6.28;2.35;;;;;;;1.10;100.00;102891.63;5048650;28;20098;-72
2022/03/07 07:55:21;;;;;;;4.90;2.30;;;;;;;1.41;100.00;102893.44;5045644;28;20503;-73
2022/03/07 07:57:46;;;;;;;4.05;2.60;;;;;;;1.85;99.75;102893.94;5050386;28;20384;-73
2022/03/07 08:00:15;;;;;;;7.18;2.55;;;;;;;2.73;100.00;102894.81;5052656;28;20039;-73
2022/03/07 08:02:44;;;;;;;9.35;2.22;;;;;;;3.61;99.46;102891.84;5051025;28;20804;-74
2022/03/07 08:05:09;;;;;;;3.50;2.05;;;;;;;4.44;95.88;102899.22;5049008;28;20032;-74
2022/03/07 08:07:35;;;;;;;2.38;1.80;;;;;;;5.77;92.19;102896.28;5044727;28;20029;-74
2022/03/07 08:10:01;;;;;;;2.20;1.60;;;;;;;7.14;86.99;102899.47;5014084;28;20037;-74
2022/03/07 08:12:27;;;;;;;4.03;1.38;;;;;;;8.83;79.82;102903.56;5043389;28;20127;-74
2022/03/07 08:14:52;;;;;;;4.13;1.70;;;;;;;10.25;73.15;102891.44;5046852;28;20574;-74
2022/03/07 08:17:18;;;;;;;2.25;1.30;;;;;;;11.56;66.56;102911.03;5046478;28;20052;-75
2022/03/07 08:19:43;;;;;;;2.83;1.48;;;;;;;12.31;61.28;102890.72;5045395;28;20029;-75
2022/03/07 08:22:09;;;;;;;3.55;1.48;;;;;;;13.29;58.26;102902.97;5048228;28;20035;-75
2022/03/07 08:24:34;;;;;;;2.97;1.30;;;;;;;14.26;55.40;102896.16;5030164;28;20251;-75
2022/03/07 08:26:59;;;;;;;2.38;1.10;;;;;;;15.02;52.49;102907.66;5051341;28;20424;-75
2022/03/07 08:29:25;;;;;;;2.88;0.95;;;;;;;15.31;50.52;102903.47;5045268;28;20033;-75
2022/03/07 08:31:51;;;;;;;4.68;1.35;;;;;;;15.92;49.57;102892.06;5051742;28;20032;-75
2022/03/07 08:34:16;;;;;;;6.43;1.33;;;;;;;16.57;48.69;102911.09;5051762;28;20033;-75
2022/03/07 08:36:41;;;;;;;4.32;0.98;;;;;;;17.12;47.43;102908.72;5048539;28;20033;-75
2022/03/07 08:39:07;;;;;;;2.55;1.20;;;;;;;17.49;46.02;102907.94;5052170;28;20043;-75
2022/03/07 08:41:34;;;;;;;4.65;1.05;;;;;;;17.91;45.23;102910.19;5047546;28;20119;-75
2022/03/07 08:44:00;;;;;;;3.08;0.75;;;;;;;18.38;44.68;102906.53;5046983;28;20062;-75
2022/03/07 08:46:25;;;;;;;2.80;0.80;;;;;;;18.70;43.39;102911.34;5050017;28;20029;-76
2022/03/07 08:48:51;;;;;;;2.05;0.90;;;;;;;18.96;42.89;102910.59;5054968;28;20035;-75
2022/03/07 08:51:16;;;;;;;3.53;1.02;;;;;;;19.10;42.69;102928.78;5056877;28;20079;-76
2022/03/07 08:53:42;;;;;;;2.60;0.90;;;;;;;18.37;42.90;102903.00;5037896;28;20131;-76
2022/03/07 08:56:08;;;;;;;3.67;0.85;;;;;;;18.31;43.65;102914.31;5048339;28;20040;-76
2022/03/07 08:58:33;;;;;;;3.28;1.08;;;;;;;18.57;43.48;102914.41;5051149;28;20028;-76
2022/03/07 09:00:58;;;;;;;2.80;0.98;;;;;;;18.19;43.21;102912.84;5051756;28;20064;-76
2022/03/07 09:03:24;;;;;;;2.00;0.90;;;;;;;17.27;43.51;102869.94;5050446;28;20032;-76
2022/03/07 09:05:49;;;;;;;2.70;1.08;;;;;;;17.27;45.29;102912.63;5050939;28;20037;-76
2022/03/07 09:08:15;;;;;;;3.60;0.93;;;;;;;17.58;44.08;102907.06;5055376;28;20502;-75
2022/03/07 09:10:40;;;;;;;1.95;0.82;;;;;;;17.71;44.81;102898.72;5036237;28;20412;-75
2022/03/07 09:13:05;;;;;;;2.10;0.80;;;;;;;18.27;44.44;102920.97;5046782;28;20121;-75
2022/03/07 09:15:31;;;;;;;2.75;0.80;;;;;;;19.05;42.56;102920.38;5052094;28;20627;-75
2022/03/07 09:17:56;;;;;;;0.63;0.40;;;;;;;19.57;42.34;102923.03;5050135;28;20032;-75
2022/03/07 09:20:22;;;;;;;3.17;0.80;;;;;;;20.82;40.49;102900.00;5049565;28;20280;-75
2022/03/07 09:22:48;;;;;;;13.30;6.65;;;;;;;21.40;39.23;102908.78;5037976;28;20028;-75
2022/03/07 09:25:14;;;;;;;5.82;1.88;;;;;;;22.02;38.78;102912.63;5050551;28;20067;-75
2022/03/07 09:27:42;;;;;;;3.58;1.15;;;;;;;22.70;38.31;102911.03;5049234;28;20086;-75
2022/03/07 09:30:07;;;;;;;4.95;0.90;;;;;;;23.52;36.41;102900.31;5050991;28;20032;-76
2022/03/07 09:32:33;;;;;;;2.97;1.35;;;;;;;23.83;36.70;102910.09;5053398;28;20043;-76
2022/03/07 09:34:59;;;;;;;2.75;1.30;;;;;;;24.32;35.19;102908.56;5051880;28;20040;-76
2022/03/07 09:37:24;;;;;;;3.33;0.90;;;;;;;24.79;35.88;102902.59;5048194;28;20515;-76
2022/03/07 09:39:50;;;;;;;8.27;2.20;;;;;;;25.29;34.89;102905.28;5051262;28;20029;-76
2022/03/07 09:42:15;;;;;;;2.67;1.02;;;;;;;26.02;33.63;102912.91;5054067;28;20035;-75
2022/03/07 09:44:41;;;;;;;2.15;0.90;;;;;;;26.30;33.05;102906.53;5052093;28;20029;-76
2022/03/07 09:47:06;;;;;;;3.20;0.90;;;;;;;26.82;32.31;102896.81;5051800;28;20036;-77
2022/03/07 09:49:33;;;;;;;5.85;1.17;;;;;;;27.04;31.59;102913.66;5058142;28;20564;-76
2022/03/07 09:51:59;;;;;;;2.45;0.73;;;;;;;26.62;32.38;102907.66;5052929;28;20485;-76
2022/03/07 09:54:25;;;;;;;4.03;0.90;;;;;;;26.82;32.87;102904.94;5052938;28;20378;-76
2022/03/07 09:56:53;;;;;;;5.60;0.85;;;;;;;27.48;31.11;102913.00;5047637;28;20029;-76
2022/03/07 09:59:20;;;;;;;4.47;0.90;;;;;;;25.95;31.28;102901.25;5054041;28;20059;-77
2022/03/07 10:01:56;;;;;;;2.65;0.90;;;;;;;23.59;33.79;102911.19;5057597;28;20023;-76
2022/03/07 10:04:22;;;;;;;4.47;1.17;;;;;;;22.31;37.22;102917.38;5055586;28;20040;-76
2022/03/07 10:06:49;;;;;;;4.60;1.50;;;;;;;23.04;35.40;102907.06;5035010;28;20028;-76
2022/03/07 10:09:19;;;;;;;4.55;1.13;;;;;;;21.10;37.55;102913.91;5052876;28;20074;-76
2022/03/07 10:11:49;;;;;;;;;;;;;;;21.88;37.60;102903.44;5056893;28;20024;-76
2022/03/07 10:14:15;;;;;;;2.60;0.80;;;;;;;23.41;35.11;102907.03;5054232;28;19998;-75
2022/03/07 10:16:43;;;;;;;4.15;0.90;;;;;;;22.98;36.22;102909.44;5050757;28;20638;-75
2022/03/07 10:19:13;;;;;;;4.25;0.95;;;;;;;24.60;35.09;102906.78;5058609;28;20101;-76
2022/03/07 10:21:51;;;;;;;2.45;1.10;;;;;;;26.16;32.49;102892.16;5050030;28;20024;-76
2022/03/07 10:24:18;;;;;;;3.13;0.88;;;;;;;27.03;32.67;102903.88;5046532;28;20493;-76
2022/03/07 10:26:44;;;;;;;3.72;0.70;;;;;;;28.00;30.60;102898.59;5057480;28;20258;-76
2022/03/07 10:29:10;;;;;;;2.63;0.60;;;;;;;28.93;29.33;102890.59;5050415;28;20055;-76
2022/03/07 10:31:37;;;;;;;3.80;0.93;;;;;;;29.67;28.88;102892.53;5055209;28;20108;-76
2022/03/07 10:34:04;;;;;;;2.83;0.85;;;;;;;29.71;28.47;102888.31;5055179;28;20269;-76
2022/03/07 10:36:38;;;;;;;4.95;0.93;;;;;;;28.28;29.04;102877.31;5060638;28;20385;-76
2022/03/07 10:39:07;;;;;;;2.10;0.85;;;;;;;25.56;30.47;102868.38;5033051;28;20021;-76
2022/03/07 10:41:39;;;;;;;2.03;0.77;;;;;;;22.87;34.32;102877.56;5057055;28;20059;-76
2022/03/07 10:44:07;;;;;;;5.45;1.00;;;;;;;19.81;38.23;102878.66;5049917;28;20040;-76
2022/03/07 10:46:32;;;;;;;2.35;0.90;;;;;;;21.94;37.04;102868.63;5048401;28;20384;-75
2022/03/07 10:48:58;;;;;;;7.22;0.95;;;;;;;22.17;36.39;102879.44;5051845;28;20037;-75
2022/03/07 10:51:25;;;;;;;3.55;1.17;;;;;;;23.94;35.44;102887.19;5055926;28;20488;-75
2022/03/07 10:53:51;;;;;;;3.80;0.80;;;;;;;26.10;32.65;102879.44;5055218;28;20108;-76
2022/03/07 10:56:18;;;;;;;2.75;0.93;;;;;;;27.35;32.06;102869.66;5053089;28;20479;-76
2022/03/07 10:58:49;;;;;;;3.78;0.85;;;;;;;28.04;28.83;102859.13;5053521;28;20611;-76
2022/03/07 11:01:26;;;;;;;2.05;0.77;;;;;;;28.57;29.10;102872.34;5054701;28;20029;-76
2022/03/07 11:03:51;;;;;;;4.32;0.98;;;;;;;29.43;27.95;102862.47;5051158;28;20055;-76
2022/03/07 11:06:17;;;;;;;4.38;0.93;;;;;;;29.60;28.52;102864.59;5049397;28;20552;-76
2022/03/07 11:08:43;;;;;;;3.20;1.00;;;;;;;29.20;28.00;102871.34;5058848;28;20040;-76
2022/03/07 11:11:09;;;;;;;2.80;0.70;;;;;;;30.17;27.57;102873.22;5049084;28;20040;-76
2022/03/07 11:13:35;;;;;;;2.47;0.85;;;;;;;30.55;26.54;102850.19;5059022;28;20029;-76
2022/03/07 11:16:02;;;;;;;5.00;1.00;;;;;;;30.15;26.70;102865.28;5058408;28;20052;-76
2022/03/07 11:18:30;;;;;;;3.33;0.80;;;;;;;30.79;26.79;102866.56;5056234;28;20036;-76